createdAt,value
2023-02-27T00:02:25.429Z,102081.56
2023-02-27T00:04:54.556Z,102085.00
2023-02-27T00:07:26.111Z,102078.56
2023-02-27T00:09:54.381Z,102086.34
2023-02-27T00:12:23.878Z,102079.56
2023-02-27T00:14:52.029Z,102083.31
2023-02-27T00:17:20.265Z,102079.97
2023-02-27T00:19:48.434Z,102082.53
2023-02-27T00:22:16.569Z,102080.06
2023-02-27T00:24:44.787Z,102081.44
2023-02-27T00:27:13.104Z,102085.03
2023-02-27T00:29:42.661Z,102082.53
2023-02-27T00:32:10.844Z,102086.06
2023-02-27T00:34:38.996Z,102083.53
2023-02-27T00:37:07.220Z,102080.06
2023-02-27T00:39:35.560Z,102078.31
2023-02-27T00:42:03.748Z,102090.41
2023-02-27T00:44:31.990Z,102086.84
2023-02-27T00:55:28.117Z,102096.25
2023-02-27T00:57:56.304Z,102092.75
2023-02-27T01:00:24.618Z,102095.38
2023-02-27T01:02:52.696Z,102092.75
2023-02-27T01:05:20.797Z,102085.59
2023-02-27T01:07:48.896Z,102082.09
2023-02-27T01:10:17.583Z,102084.72
2023-02-27T01:12:47.089Z,102084.88
2023-02-27T01:15:15.194Z,102088.38
2023-02-27T01:17:43.462Z,102090.97
2023-02-27T01:20:13.432Z,102090.00
2023-02-27T01:22:41.552Z,102083.06
2023-02-27T01:25:09.952Z,102092.63
2023-02-27T01:27:40.705Z,102077.88
2023-02-27T01:30:12.573Z,102084.00
2023-02-27T01:32:40.719Z,102084.63
2023-02-27T01:35:09.364Z,102071.78
2023-02-27T01:37:37.503Z,102073.56
2023-02-27T01:40:08.327Z,102087.28
2023-02-27T01:42:36.563Z,102075.94
2023-02-27T01:45:30.150Z,102081.28
2023-02-27T01:48:06.317Z,102088.03
2023-02-27T01:50:37.170Z,102083.59
2023-02-27T01:53:07.979Z,102087.84
2023-02-27T01:55:39.336Z,102086.91
2023-02-27T01:58:10.114Z,102087.91
2023-02-27T02:00:40.088Z,102081.22
2023-02-27T02:03:19.393Z,102084.94
2023-02-27T02:05:48.226Z,102078.63
2023-02-27T02:08:19.411Z,102076.06
2023-02-27T02:10:49.708Z,102083.00
2023-02-27T02:13:19.324Z,102080.50
2023-02-27T02:15:56.540Z,102082.28
2023-02-27T02:18:30.911Z,102085.63
2023-02-27T02:21:35.687Z,102081.31
2023-02-27T02:24:37.128Z,102090.16
2023-02-27T02:27:18.906Z,102098.03
2023-02-27T02:30:44.061Z,102087.41
2023-02-27T02:33:48.727Z,102096.91
2023-02-27T02:36:58.252Z,102092.69
2023-02-27T02:39:49.769Z,102099.78
2023-02-27T02:42:23.418Z,102090.25
2023-02-27T02:45:01.864Z,102096.38
2023-02-27T02:47:37.786Z,102102.94
2023-02-27T02:50:13.671Z,102101.50
2023-02-27T02:52:52.554Z,102099.81
2023-02-27T02:55:28.624Z,102105.97
2023-02-27T02:58:04.629Z,102099.19
2023-02-27T03:00:36.825Z,102083.63
2023-02-27T03:03:13.647Z,102087.16
2023-02-27T03:05:49.481Z,102096.56
2023-02-27T03:08:21.772Z,102096.50
2023-02-27T03:10:55.144Z,102090.53
2023-02-27T03:13:28.318Z,102087.16
2023-02-27T03:16:02.409Z,102092.38
2023-02-27T03:18:35.911Z,102086.28
2023-02-27T03:21:09.552Z,102092.31
2023-02-27T03:23:44.464Z,102091.53
2023-02-27T03:26:18.072Z,102094.84
2023-02-27T03:28:56.827Z,102102.66
2023-02-27T03:31:32.334Z,102104.53
2023-02-27T03:34:05.597Z,102102.78
2023-02-27T03:36:43.994Z,102114.97
2023-02-27T03:39:23.100Z,102108.09
2023-02-27T03:41:58.187Z,102117.69
2023-02-27T03:45:00.258Z,102110.75
2023-02-27T03:47:29.147Z,102099.34
2023-02-27T03:49:57.545Z,102116.63
2023-02-27T03:52:27.540Z,102116.44
2023-02-27T03:55:00.308Z,102112.38
2023-02-27T03:57:31.717Z,102112.47
2023-02-27T04:00:00.527Z,102115.06
2023-02-27T04:02:29.459Z,102106.44
2023-02-27T04:04:57.843Z,102113.47
2023-02-27T04:07:52.630Z,102113.53
2023-02-27T04:10:41.313Z,102121.28
2023-02-27T04:13:45.547Z,102121.00
2023-02-27T04:16:40.688Z,102110.84
2023-02-27T04:19:19.842Z,102108.31
2023-02-27T04:22:01.201Z,102103.13
2023-02-27T04:24:38.693Z,102111.84
2023-02-27T04:27:16.827Z,102112.66
2023-02-27T04:29:55.349Z,102099.66
2023-02-27T04:32:31.778Z,102117.91
2023-02-27T04:35:03.129Z,102117.03
2023-02-27T04:37:38.196Z,102116.81
2023-02-27T04:40:11.417Z,102116.94
2023-02-27T04:42:43.549Z,102122.25
2023-02-27T04:45:18.715Z,102125.75
2023-02-27T04:47:51.345Z,102141.38
2023-02-27T04:50:25.565Z,102137.91
2023-02-27T04:53:01.186Z,102139.63
2023-02-27T04:55:33.898Z,102148.22
2023-02-27T04:58:06.431Z,102150.81
2023-02-27T05:00:38.472Z,102153.44
2023-02-27T05:03:21.945Z,102154.94
2023-02-27T05:05:53.170Z,102148.25
2023-02-27T05:08:27.483Z,102156.94
2023-02-27T05:11:02.694Z,102161.28
2023-02-27T05:13:35.923Z,102164.72
2023-02-27T05:16:12.458Z,102169.75
2023-02-27T05:18:40.743Z,102169.06
2023-02-27T05:21:19.649Z,102170.09
2023-02-27T05:23:57.182Z,102176.91
2023-02-27T05:26:34.334Z,102177.44
2023-02-27T05:29:09.306Z,102183.66
2023-02-27T05:31:46.053Z,102173.38
2023-02-27T05:34:20.731Z,102186.31
2023-02-27T05:36:54.348Z,102181.22
2023-02-27T05:39:27.104Z,102184.06
2023-02-27T05:42:00.175Z,102181.50
2023-02-27T05:44:33.065Z,102177.91
2023-02-27T05:47:07.141Z,102183.16
2023-02-27T05:49:41.163Z,102188.34
2023-02-27T05:52:16.062Z,102193.69
2023-02-27T05:54:50.398Z,102198.78
2023-02-27T05:57:23.783Z,102193.50
2023-02-27T05:59:58.725Z,102201.38
2023-02-27T06:02:28.716Z,102204.78
2023-02-27T06:04:57.573Z,102198.69
2023-02-27T06:07:25.804Z,102201.41
2023-02-27T06:09:54.034Z,102202.22
2023-02-27T06:12:22.153Z,102206.50
2023-02-27T06:14:51.770Z,102216.88
2023-02-27T06:17:19.978Z,102224.84
2023-02-27T06:19:49.580Z,102218.81
2023-02-27T06:22:17.728Z,102226.59
2023-02-27T06:24:45.857Z,102235.38
2023-02-27T06:27:14.030Z,102238.75
2023-02-27T06:29:42.201Z,102236.13
2023-02-27T06:32:10.427Z,102236.09
2023-02-27T06:34:38.581Z,102236.78
2023-02-27T06:37:08.148Z,102235.38
2023-02-27T06:39:36.588Z,102235.38
2023-02-27T06:42:05.022Z,102236.38
2023-02-27T06:44:33.316Z,102246.66
2023-02-27T06:47:01.463Z,102261.38
2023-02-27T06:49:29.934Z,102263.34
2023-02-27T06:51:58.182Z,102266.75
2023-02-27T06:54:27.694Z,102271.97
2023-02-27T06:56:56.355Z,102273.84
2023-02-27T06:59:24.696Z,102278.00
2023-02-27T07:01:52.849Z,102259.97
2023-02-27T07:04:21.618Z,102267.00
2023-02-27T07:07:34.860Z,102274.03
2023-02-27T07:09:39.485Z,102277.50
2023-02-27T07:12:08.431Z,102263.56
2023-02-27T07:14:36.581Z,102266.31
2023-02-27T07:17:04.869Z,102277.53
2023-02-27T07:19:35.938Z,102272.19
2023-02-27T07:22:04.210Z,102274.56
2023-02-27T07:24:32.365Z,102278.22
2023-02-27T07:27:01.991Z,102270.44
2023-02-27T07:29:30.486Z,102285.97
2023-02-27T07:31:58.992Z,102284.22
2023-02-27T07:34:27.138Z,102289.38
2023-02-27T07:36:55.287Z,102292.03
2023-02-27T07:39:23.797Z,102298.06
2023-02-27T07:41:52.249Z,102294.44
2023-02-27T07:44:22.516Z,102299.19
2023-02-27T07:46:50.690Z,102309.56
2023-02-27T07:49:19.188Z,102295.00
2023-02-27T07:51:47.392Z,102306.16
2023-02-27T07:54:15.870Z,102307.06
2023-02-27T07:56:44.020Z,102305.44
2023-02-27T07:59:12.571Z,102311.44
2023-02-27T08:01:42.148Z,102299.38
2023-02-27T08:04:10.980Z,102298.56
2023-02-27T08:06:39.950Z,102302.91
2023-02-27T08:09:08.325Z,102315.97
2023-02-27T08:11:36.458Z,102303.84
2023-02-27T08:14:04.771Z,102296.91
2023-02-27T08:16:33.853Z,102305.56
2023-02-27T08:19:03.823Z,102305.59
2023-02-27T08:21:32.266Z,102303.97
2023-02-27T08:24:00.383Z,102304.84
2023-02-27T08:26:28.859Z,102311.03
2023-02-27T08:28:57.472Z,102309.28
2023-02-27T08:31:26.205Z,102315.38
2023-02-27T08:34:04.430Z,102309.31
2023-02-27T08:36:37.652Z,102319.75
2023-02-27T08:39:05.933Z,102312.78
2023-02-27T08:41:34.908Z,102307.47
2023-02-27T08:44:03.081Z,102307.47
2023-02-27T08:46:31.233Z,102311.88
2023-02-27T08:48:59.870Z,102318.91
2023-02-27T08:51:28.745Z,102331.06
2023-02-27T08:53:59.053Z,102319.72
2023-02-27T08:56:27.985Z,102323.19
2023-02-27T08:58:57.088Z,102331.00
2023-02-27T09:01:27.336Z,102331.88
2023-02-27T09:03:55.659Z,102328.44
2023-02-27T09:06:26.166Z,102330.16
2023-02-27T09:08:54.668Z,102335.34
2023-02-27T09:11:25.151Z,102337.16
2023-02-27T09:13:53.693Z,102330.19
2023-02-27T09:16:23.285Z,102337.19
2023-02-27T09:18:52.644Z,102334.53
2023-02-27T09:21:21.896Z,102340.66
2023-02-27T09:23:50.019Z,102340.75
2023-02-27T09:26:18.188Z,102334.63
2023-02-27T09:28:47.762Z,102332.88
2023-02-27T09:31:17.199Z,102332.00
2023-02-27T09:33:45.487Z,102325.91
2023-02-27T09:36:13.927Z,102329.41
2023-02-27T09:38:42.936Z,102333.75
2023-02-27T09:41:36.692Z,102324.94
2023-02-27T09:44:14.247Z,102329.31
2023-02-27T09:46:42.745Z,102333.72
2023-02-27T09:49:16.506Z,102329.34
2023-02-27T09:51:44.813Z,102323.22
2023-02-27T09:54:14.186Z,102337.22
2023-02-27T09:56:48.876Z,102333.72
2023-02-27T09:59:29.366Z,102340.69
2023-02-27T10:02:06.166Z,102340.66
2023-02-27T10:04:40.582Z,102334.50
2023-02-27T10:07:16.624Z,102336.31
2023-02-27T10:10:05.034Z,102338.94
2023-02-27T10:12:46.801Z,102344.16
2023-02-27T10:15:25.146Z,102344.03
2023-02-27T10:17:56.019Z,102337.06
2023-02-27T10:20:29.001Z,102340.63
2023-02-27T10:23:01.287Z,102328.38
2023-02-27T10:25:32.146Z,102330.16
2023-02-27T10:28:10.524Z,102333.59
2023-02-27T10:30:40.991Z,102351.09
2023-02-27T10:33:13.811Z,102351.00
2023-02-27T10:35:45.206Z,102345.63
2023-02-27T10:38:16.528Z,102354.31
2023-02-27T10:40:46.464Z,102355.22
2023-02-27T10:43:19.164Z,102352.44
2023-02-27T10:45:48.947Z,102350.81
2023-02-27T10:48:17.659Z,102355.19
2023-02-27T10:50:50.419Z,102359.72
2023-02-27T10:53:21.568Z,102366.59
2023-02-27T10:56:01.178Z,102357.03
2023-02-27T10:58:34.762Z,102363.03
2023-02-27T11:01:06.976Z,102351.78
2023-02-27T11:03:40.622Z,102357.66
2023-02-27T11:06:13.299Z,102354.13
2023-02-27T11:08:41.520Z,102351.53
2023-02-27T11:11:11.964Z,102355.94
2023-02-27T11:13:42.556Z,102357.47
2023-02-27T11:16:17.613Z,102366.28
2023-02-27T11:18:47.052Z,102361.38
2023-02-27T11:21:20.629Z,102369.81
2023-02-27T11:24:00.433Z,102344.66
2023-02-27T11:26:33.087Z,102339.22
2023-02-27T11:29:06.838Z,102346.19
2023-02-27T11:31:38.129Z,102349.00
2023-02-27T11:34:08.210Z,102338.16
2023-02-27T11:36:42.364Z,102337.38
2023-02-27T11:39:23.914Z,102325.66
2023-02-27T11:41:52.509Z,102336.34
2023-02-27T11:44:49.758Z,102331.09
2023-02-27T11:47:20.874Z,102341.63
2023-02-27T11:50:10.945Z,102324.84
2023-02-27T11:52:48.642Z,102340.63
2023-02-27T11:55:21.632Z,102336.22
2023-02-27T11:57:54.430Z,102345.19
2023-02-27T12:00:27.172Z,102353.31
2023-02-27T12:03:04.742Z,102352.44
2023-02-27T12:05:36.884Z,102349.00
2023-02-27T12:08:11.367Z,102335.88
2023-02-27T12:10:46.914Z,102327.91
2023-02-27T12:13:18.775Z,102333.06
2023-02-27T12:15:52.846Z,102314.91
2023-02-27T12:18:27.824Z,102326.22
2023-02-27T12:21:01.046Z,102319.16
2023-02-27T12:23:35.339Z,102322.59
2023-02-27T12:26:08.323Z,102327.06
2023-02-27T12:28:49.060Z,102315.63
2023-02-27T12:31:37.301Z,102336.59
2023-02-27T12:34:16.737Z,102343.81
2023-02-27T12:36:45.624Z,102356.88
2023-02-27T12:39:20.433Z,102356.84
2023-02-27T12:42:28.730Z,102355.84
2023-02-27T12:45:11.699Z,102345.41
2023-02-27T12:47:47.610Z,102347.94
2023-02-27T12:50:19.479Z,102321.72
2023-02-27T12:52:58.873Z,102314.00
2023-02-27T12:55:29.788Z,102319.13
2023-02-27T12:58:25.868Z,102317.56
2023-02-27T13:01:00.790Z,102335.88
2023-02-27T13:03:35.468Z,102342.03
2023-02-27T13:06:13.798Z,102345.63
2023-02-27T13:08:55.428Z,102368.31
2023-02-27T13:11:32.525Z,102360.44
2023-02-27T13:14:03.976Z,102361.28
2023-02-27T13:16:36.527Z,102356.00
2023-02-27T13:19:10.730Z,102354.19
2023-02-27T13:21:47.401Z,102346.31
2023-02-27T13:24:27.177Z,102352.50
2023-02-27T13:27:03.594Z,102349.69
2023-02-27T13:29:47.419Z,102353.97
2023-02-27T13:32:36.498Z,102349.59
2023-02-27T13:35:22.299Z,102350.47
2023-02-27T13:37:54.433Z,102349.56
2023-02-27T13:40:35.981Z,102358.44
2023-02-27T13:43:26.906Z,102360.31
2023-02-27T13:45:57.796Z,102361.78
2023-02-27T13:48:43.338Z,102366.03
2023-02-27T13:51:48.181Z,102356.47
2023-02-27T13:54:23.895Z,102350.44
2023-02-27T13:57:07.761Z,102360.09
2023-02-27T13:59:39.565Z,102346.00
2023-02-27T14:02:31.052Z,102353.13
2023-02-27T14:05:03.328Z,102355.94
2023-02-27T14:07:35.470Z,102359.38
2023-02-27T14:10:11.127Z,102355.88
2023-02-27T14:12:45.925Z,102357.56
2023-02-27T14:15:48.234Z,102362.78
2023-02-27T14:18:55.229Z,102368.97
2023-02-27T14:21:55.832Z,102356.50
2023-02-27T14:24:36.316Z,102372.41
2023-02-27T14:27:16.318Z,102368.06
2023-02-27T14:29:47.846Z,102364.56
2023-02-27T14:32:22.018Z,102365.38
2023-02-27T14:34:52.006Z,102369.75
2023-02-27T14:37:23.588Z,102376.88
2023-02-27T14:39:54.565Z,102380.31
2023-02-27T14:42:45.745Z,102375.88
2023-02-27T14:45:15.614Z,102380.31
2023-02-27T14:47:45.664Z,102384.50
2023-02-27T14:50:26.195Z,102379.44
2023-02-27T14:52:54.892Z,102394.28
2023-02-27T14:55:29.751Z,102397.72
2023-02-27T14:58:02.750Z,102386.41
2023-02-27T15:00:37.375Z,102385.63
2023-02-27T15:03:19.164Z,102396.88
2023-02-27T15:05:48.981Z,102389.06
2023-02-27T15:08:20.521Z,102382.81
2023-02-27T15:10:49.577Z,102388.16
2023-02-27T15:13:28.068Z,102399.38
2023-02-27T15:16:21.525Z,102394.31
2023-02-27T15:18:51.078Z,102392.69
2023-02-27T15:21:22.618Z,102389.13
2023-02-27T15:23:58.468Z,102393.47
2023-02-27T15:26:30.129Z,102399.69
2023-02-27T15:29:00.721Z,102398.75
2023-02-27T15:31:32.142Z,102404.06
2023-02-27T15:34:02.378Z,102411.91
2023-02-27T15:36:33.053Z,102411.00
2023-02-27T15:39:08.285Z,102419.81
2023-02-27T15:41:37.225Z,102425.13
2023-02-27T15:44:06.994Z,102421.53
2023-02-27T15:46:35.448Z,102429.50
2023-02-27T15:49:03.744Z,102436.44
2023-02-27T15:51:31.892Z,102438.31
2023-02-27T15:54:02.027Z,102432.13
2023-02-27T15:56:35.740Z,102435.63
2023-02-27T15:59:06.535Z,102441.78
2023-02-27T16:01:35.723Z,102443.59
2023-02-27T16:04:06.969Z,102454.97
2023-02-27T16:06:37.040Z,102442.72
2023-02-27T16:09:07.587Z,102444.44
2023-02-27T16:11:38.197Z,102445.38
2023-02-27T16:14:08.502Z,102457.63
2023-02-27T16:16:39.038Z,102448.81
2023-02-27T16:19:17.207Z,102460.22
2023-02-27T16:22:04.027Z,102463.75
2023-02-27T16:24:32.820Z,102455.84
2023-02-27T16:27:01.773Z,102455.84
2023-02-27T16:29:35.772Z,102460.19
2023-02-27T16:32:05.051Z,102465.44
2023-02-27T16:34:45.051Z,102462.81
2023-02-27T16:37:21.024Z,102456.69
2023-02-27T16:39:50.939Z,102468.94
2023-02-27T16:42:19.439Z,102471.56
2023-02-27T16:44:49.051Z,102472.53
2023-02-27T16:47:17.246Z,102480.34
2023-02-27T16:49:47.426Z,102480.34
2023-02-27T16:52:15.907Z,102486.50
2023-02-27T16:54:44.033Z,102480.41
2023-02-27T16:57:13.920Z,102492.66
2023-02-27T16:59:43.993Z,102488.28
2023-02-27T17:02:15.885Z,102496.16
2023-02-27T17:04:46.727Z,102491.81
2023-02-27T17:07:16.792Z,102493.53
2023-02-27T17:09:45.672Z,102495.31
2023-02-27T17:12:14.035Z,102501.38
2023-02-27T17:14:42.208Z,102499.66
2023-02-27T17:17:11.529Z,102503.13
2023-02-27T17:19:41.155Z,102502.25
2023-02-27T17:22:09.396Z,102506.66
2023-02-27T17:24:38.356Z,102497.03
2023-02-27T17:27:06.547Z,102500.53
2023-02-27T17:29:34.688Z,102506.63
2023-02-27T17:32:02.860Z,102502.28
2023-02-27T17:34:31.033Z,102511.00
2023-02-27T17:37:00.495Z,102511.91
2023-02-27T17:39:28.808Z,102511.91
2023-02-27T17:41:57.009Z,102515.41
2023-02-27T17:44:25.150Z,102510.13
2023-02-27T17:46:53.529Z,102511.91
2023-02-27T17:49:21.776Z,102511.03
2023-02-27T17:51:49.910Z,102518.03
2023-02-27T17:54:19.381Z,102517.16
2023-02-27T17:56:47.526Z,102511.03
2023-02-27T17:59:15.635Z,102506.56
2023-02-27T18:01:43.981Z,102519.63
2023-02-27T18:04:12.784Z,102514.44
2023-02-27T18:06:40.915Z,102497.91
2023-02-27T18:09:09.066Z,102509.25
2023-02-27T18:11:38.671Z,102506.66
2023-02-27T18:14:07.168Z,102504.88
2023-02-27T18:16:35.441Z,102498.78
2023-02-27T18:19:04.498Z,102505.78
2023-02-27T18:21:33.556Z,102499.66
2023-02-27T18:24:02.448Z,102497.88
2023-02-27T18:26:33.106Z,102504.03
2023-02-27T18:29:05.320Z,102505.75
2023-02-27T18:31:38.330Z,102504.00
2023-02-27T18:34:06.623Z,102509.22
2023-02-27T18:36:35.567Z,102507.44
2023-02-27T18:39:05.910Z,102519.66
2023-02-27T18:41:34.203Z,102514.44
2023-02-27T18:44:04.173Z,102518.72
2023-02-27T18:46:32.911Z,102522.22
2023-02-27T18:49:01.737Z,102520.50
2023-02-27T18:51:30.100Z,102517.00
2023-02-27T18:53:58.352Z,102517.81
2023-02-27T18:56:27.897Z,102515.19
2023-02-27T18:58:58.182Z,102512.66
2023-02-27T19:01:29.856Z,102518.75
2023-02-27T19:04:03.372Z,102522.22
2023-02-27T19:06:32.804Z,102532.69
2023-02-27T19:09:01.065Z,102524.81
2023-02-27T19:11:33.200Z,102542.22
2023-02-27T19:14:02.916Z,102542.06
2023-02-27T19:16:32.781Z,102540.44
2023-02-27T19:19:03.089Z,102534.38
2023-02-27T19:21:32.015Z,102536.19
2023-02-27T19:24:00.688Z,102533.44
2023-02-27T19:26:29.672Z,102544.75
2023-02-27T19:28:58.277Z,102534.41
2023-02-27T19:31:28.599Z,102535.25
2023-02-27T19:33:59.220Z,102541.31
2023-02-27T19:36:29.784Z,102538.72
2023-02-27T19:38:58.868Z,102543.00
2023-02-27T19:41:28.449Z,102541.22
2023-02-27T19:43:57.680Z,102545.66
2023-02-27T19:46:28.282Z,102541.31
2023-02-27T19:49:01.179Z,102537.53
2023-02-27T19:51:29.815Z,102537.53
2023-02-27T19:53:58.435Z,102540.28
2023-02-27T19:56:29.090Z,102545.47
2023-02-27T19:58:57.722Z,102533.16
2023-02-27T20:01:27.949Z,102534.94
2023-02-27T20:03:59.195Z,102541.22
2023-02-27T20:06:30.225Z,102534.28
2023-02-27T20:08:59.393Z,102540.41
2023-02-27T20:11:30.345Z,102537.75
2023-02-27T20:13:58.928Z,102545.56
2023-02-27T20:16:28.188Z,102545.44
2023-02-27T20:18:58.115Z,102545.44
2023-02-27T20:21:26.851Z,102541.94
2023-02-27T20:23:55.973Z,102535.88
2023-02-27T20:26:26.423Z,102534.91
2023-02-27T20:28:56.537Z,102542.78
2023-02-27T20:31:27.556Z,102544.50
2023-02-27T20:33:57.077Z,102541.72
2023-02-27T20:36:26.685Z,102539.91
2023-02-27T20:38:55.248Z,102535.59
2023-02-27T20:41:28.192Z,102537.53
2023-02-27T20:43:58.203Z,102540.75
2023-02-27T20:46:29.381Z,102552.22
2023-02-27T20:49:00.120Z,102548.00
2023-02-27T20:51:35.052Z,102542.72
2023-02-27T20:54:04.866Z,102544.31
2023-02-27T20:56:34.570Z,102544.31
2023-02-27T20:59:07.352Z,102549.66
2023-02-27T21:01:38.209Z,102563.47
2023-02-27T21:04:06.739Z,102550.41
2023-02-27T21:06:36.431Z,102553.78
2023-02-27T21:09:07.350Z,102558.22
2023-02-27T21:11:35.658Z,102551.19
2023-02-27T21:14:05.207Z,102555.50
2023-02-27T21:16:33.742Z,102552.03
2023-02-27T21:19:02.486Z,102563.50
2023-02-27T21:21:34.404Z,102556.50
2023-02-27T21:24:05.672Z,102560.72
2023-02-27T21:26:35.941Z,102550.19
2023-02-27T21:29:07.038Z,102558.81
2023-02-27T21:31:36.676Z,102555.97
2023-02-27T21:34:07.813Z,102552.59
2023-02-27T21:36:38.200Z,102549.34
2023-02-27T21:39:10.362Z,102553.88
2023-02-27T21:41:39.378Z,102554.75
2023-02-27T21:44:09.839Z,102558.81
2023-02-27T21:46:38.050Z,102553.81
2023-02-27T21:49:06.291Z,102555.44
2023-02-27T21:51:40.502Z,102555.44
2023-02-27T21:54:13.008Z,102563.44
2023-02-27T21:56:42.358Z,102571.25
2023-02-27T21:59:10.598Z,102564.97
2023-02-27T22:01:39.600Z,102564.22
2023-02-27T22:04:07.856Z,102566.06
2023-02-27T22:06:36.466Z,102562.50
2023-02-27T22:09:07.064Z,102559.44
2023-02-27T22:11:36.829Z,102562.59
2023-02-27T22:14:06.851Z,102568.06
2023-02-27T22:16:35.371Z,102567.63
2023-02-27T22:19:07.574Z,102563.41
2023-02-27T22:21:37.110Z,102565.75
2023-02-27T22:24:06.035Z,102567.75
2023-02-27T22:26:36.454Z,102565.97
2023-02-27T22:29:06.864Z,102568.66
2023-02-27T22:31:37.430Z,102568.63
2023-02-27T22:34:07.463Z,102567.00
2023-02-27T22:36:36.148Z,102568.59
2023-02-27T22:39:05.353Z,102566.94
2023-02-27T22:41:36.732Z,102567.78
2023-02-27T22:44:05.470Z,102565.66
2023-02-27T22:46:36.191Z,102570.22
2023-02-27T22:49:07.467Z,102571.88
2023-02-27T22:51:36.264Z,102575.69
2023-02-27T22:54:06.789Z,102578.22
2023-02-27T22:56:37.431Z,102579.25
2023-02-27T22:59:06.376Z,102587.03
2023-02-27T23:01:37.255Z,102593.16
2023-02-27T23:04:07.679Z,102583.63
2023-02-27T23:06:39.892Z,102584.41
2023-02-27T23:09:10.301Z,102590.22
2023-02-27T23:11:40.355Z,102585.19
2023-02-27T23:14:08.529Z,102583.50
2023-02-27T23:16:37.095Z,102581.91
2023-02-27T23:19:05.701Z,102584.41
2023-02-27T23:21:36.255Z,102586.03
2023-02-27T23:24:05.837Z,102580.94
2023-02-27T23:26:36.456Z,102588.59
2023-02-27T23:29:07.207Z,102600.53
2023-02-27T23:31:36.134Z,102593.59
2023-02-27T23:34:05.561Z,102598.19
2023-02-27T23:36:34.443Z,102599.38
2023-02-27T23:39:03.636Z,102602.31
2023-02-27T23:41:32.257Z,102599.94
2023-02-27T23:44:01.486Z,102600.00
2023-02-27T23:46:31.646Z,102602.63
2023-02-27T23:49:00.789Z,102603.50
2023-02-27T23:51:30.811Z,102600.97
2023-02-27T23:53:59.420Z,102609.59
2023-02-27T23:56:29.948Z,102610.38
2023-02-27T23:58:59.891Z,102609.56
